Time;durP1;ratioP1;P1;durP2;ratioP2;P2;SDS_P1;SDS_P2;PMS_P1;PMS_P2;Temp;Humidity;BMP_temperature;BMP_pressure;BME280_temperature;BME280_humidity;BME280_pressure;Samples;Min_cycle;Max_cycle;Signal;HPM_P1;HPM_P2
2022/06/11 00:02:16;;;;;;;0.10;0.10;;;18.10;73.90;;;;;;5049395;28;20032;-90
2022/06/11 00:04:42;;;;;;;0.10;0.10;;;17.90;74.20;;;;;;5047087;28;20036;-90
2022/06/11 00:07:13;;;;;;;0.00;0.00;;;17.90;74.70;;;;;;5038908;28;20025;-90
2022/06/11 00:09:39;;;;;;;0.00;0.00;;;17.80;74.80;;;;;;5050163;28;20074;-90
2022/06/11 00:12:07;;;;;;;7.93;0.77;;;17.70;75.40;;;;;;5045194;28;20029;-90
2022/06/11 00:14:33;;;;;;;0.10;0.10;;;17.70;75.90;;;;;;5043615;28;20029;-91
2022/06/11 00:17:01;;;;;;;0.10;0.10;;;17.60;76.30;;;;;;5038334;28;20036;-90
2022/06/11 00:19:27;;;;;;;0.00;0.00;;;17.60;76.60;;;;;;5044067;28;20329;-90
2022/06/11 00:21:55;;;;;;;0.17;0.17;;;17.50;77.40;;;;;;5040215;28;20543;-90
2022/06/11 00:24:22;;;;;;;0.28;0.28;;;17.50;78.10;;;;;;5042195;28;20119;-90
2022/06/11 00:26:50;;;;;;;0.17;0.10;;;17.40;78.70;;;;;;5039662;28;20068;-87
2022/06/11 00:29:17;;;;;;;0.10;0.10;;;17.30;78.80;;;;;;5042827;28;20033;-87
2022/06/11 00:31:43;;;;;;;8.60;1.55;;;17.30;78.70;;;;;;5041419;28;20090;-87
2022/06/11 00:34:09;;;;;;;0.00;0.00;;;17.40;78.00;;;;;;5039323;28;20040;-86
2022/06/11 00:36:36;;;;;;;0.22;0.22;;;17.40;78.50;;;;;;5023283;28;20103;-87
2022/06/11 00:39:04;;;;;;;0.15;0.15;;;17.40;77.80;;;;;;5041267;28;20040;-84
2022/06/11 00:41:30;;;;;;;1.55;0.30;;;17.40;77.80;;;;;;5039459;28;20036;-85
2022/06/11 00:43:56;;;;;;;0.10;0.10;;;17.30;78.30;;;;;;5007809;28;20519;-88
2022/06/11 00:46:43;;;;;;;0.17;0.17;;;17.20;78.60;;;;;;5043441;28;20111;-89
2022/06/11 00:49:18;;;;;;;0.05;0.05;;;17.10;79.20;;;;;;5038464;28;20053;-86
2022/06/11 00:51:45;;;;;;;5.57;1.30;;;17.10;79.40;;;;;;5040730;28;20111;-86
2022/06/11 00:54:16;;;;;;;15.70;0.45;;;17.00;79.70;;;;;;5040879;28;20029;-86
2022/06/11 00:56:46;;;;;;;0.32;0.32;;;16.90;80.20;;;;;;5040094;28;20575;-90
2022/06/11 00:59:18;;;;;;;1.15;1.05;;;16.90;80.30;;;;;;5047500;28;20079;-91
2022/06/11 01:01:47;;;;;;;2.50;0.45;;;16.80;81.50;;;;;;5042155;28;20033;-92
2022/06/11 01:04:34;;;;;;;0.00;0.00;;;16.70;82.30;;;;;;5046960;28;20024;-92
2022/06/11 01:07:14;;;;;;;1.08;0.75;;;16.80;81.70;;;;;;5043480;28;20028;-90
2022/06/11 01:09:55;;;;;;;0.43;0.43;;;16.70;81.80;;;;;;5042223;28;20076;-91
2022/06/11 01:12:28;;;;;;;0.10;0.10;;;16.50;83.10;;;;;;5044757;28;20044;-90
2022/06/11 01:15:09;;;;;;;0.22;0.20;;;16.60;82.40;;;;;;5045243;28;20044;-92
2022/06/11 01:18:08;;;;;;;0.10;0.10;;;16.50;83.10;;;;;;5039924;28;20036;-91
2022/06/11 01:20:41;;;;;;;0.20;0.20;;;16.50;83.00;;;;;;5043986;28;20025;-90
2022/06/11 01:23:43;;;;;;;0.38;0.17;;;16.40;83.10;;;;;;5046062;28;20025;-92
2022/06/11 01:26:31;;;;;;;0.30;0.30;;;16.40;83.60;;;;;;5045543;28;20089;-90
2022/06/11 01:29:26;;;;;;;0.45;0.45;;;16.30;83.50;;;;;;5038702;28;20025;-91
2022/06/11 01:32:00;;;;;;;14.50;0.55;;;16.30;83.40;;;;;;5022058;28;20037;-85
2022/06/11 01:34:29;;;;;;;0.50;0.50;;;16.40;83.50;;;;;;5024240;28;20158;-85
2022/06/11 01:37:01;;;;;;;0.73;0.63;;;16.30;83.50;;;;;;5039583;28;20115;-85
2022/06/11 01:40:02;;;;;;;0.10;0.10;;;16.30;83.70;;;;;;5040093;28;20037;-86
2022/06/11 01:42:39;;;;;;;0.08;0.08;;;16.10;84.70;;;;;;4975383;28;20042;-86
2022/06/11 01:45:28;;;;;;;0.10;0.10;;;15.90;85.70;;;;;;4975526;28;20038;-86
2022/06/11 01:47:55;;;;;;;0.10;0.10;;;15.80;86.20;;;;;;4980618;28;20065;-86
2022/06/11 01:50:25;;;;;;;0.10;0.10;;;15.70;87.40;;;;;;4979959;28;20948;-86
2022/06/11 01:53:11;;;;;;;0.32;0.32;;;15.60;87.60;;;;;;4976014;28;20304;-86
2022/06/11 01:55:55;;;;;;;0.10;0.10;;;15.60;87.90;;;;;;4980064;28;20043;-89
2022/06/11 01:58:46;;;;;;;0.10;0.10;;;15.70;86.90;;;;;;4979019;28;20587;-88
2022/06/11 02:01:23;;;;;;;0.10;0.10;;;15.70;87.10;;;;;;4968659;28;20044;-88
2022/06/11 02:04:11;;;;;;;0.00;0.00;;;15.60;87.30;;;;;;4973305;28;20078;-88
2022/06/11 02:07:00;;;;;;;0.50;0.32;;;15.50;87.10;;;;;;4961057;28;20030;-88
2022/06/11 02:09:48;;;;;;;0.20;0.20;;;15.60;86.70;;;;;;4978978;28;20378;-87
2022/06/11 02:12:33;;;;;;;0.10;0.10;;;15.70;86.00;;;;;;4979097;28;20100;-90
2022/06/11 02:15:09;;;;;;;0.20;0.20;;;15.60;86.00;;;;;;4981107;28;20076;-90
2022/06/11 02:17:39;;;;;;;0.88;0.20;;;15.60;85.70;;;;;;4983484;28;20087;-90
2022/06/11 02:20:20;;;;;;;0.10;0.10;;;15.60;85.50;;;;;;5041688;28;20087;-90
2022/06/11 02:22:56;;;;;;;0.20;0.20;;;15.60;85.70;;;;;;5036468;28;20029;-86
2022/06/11 02:25:32;;;;;;;0.20;0.15;;;15.50;85.50;;;;;;5039026;28;20098;-86
2022/06/11 02:28:01;;;;;;;0.10;0.10;;;15.50;85.40;;;;;;5035363;28;20029;-88
2022/06/11 02:30:29;;;;;;;0.15;0.15;;;15.50;85.90;;;;;;5040297;28;20210;-88
2022/06/11 02:32:56;;;;;;;0.30;0.25;;;15.40;86.30;;;;;;5041738;28;20028;-88
2022/06/11 02:35:31;;;;;;;;;;;15.40;86.40;;;;;;5039466;28;20530;-87
2022/06/11 02:37:56;;;;;;;1.65;0.70;;;15.30;86.70;;;;;;5039803;28;19917;-87
2022/06/11 02:40:27;;;;;;;0.13;0.13;;;15.30;86.90;;;;;;5042445;28;20820;-88
2022/06/11 02:42:53;;;;;;;0.20;0.20;;;15.20;87.20;;;;;;5042454;28;20029;-90
2022/06/11 02:45:19;;;;;;;0.57;0.27;;;15.20;87.40;;;;;;5037457;28;20080;-89
2022/06/11 02:47:48;;;;;;;0.88;0.40;;;15.10;87.30;;;;;;5038949;28;20041;-90
2022/06/11 02:50:25;;;;;;;0.20;0.20;;;15.10;87.80;;;;;;5037539;28;20035;-90
2022/06/11 02:52:51;;;;;;;0.10;0.10;;;15.20;87.70;;;;;;5035105;28;20497;-89
2022/06/11 02:55:17;;;;;;;1.00;0.60;;;15.10;87.70;;;;;;5035964;28;20151;-88
2022/06/11 02:57:43;;;;;;;0.20;0.20;;;15.10;87.70;;;;;;5042098;28;20738;-88
2022/06/11 03:00:15;;;;;;;0.32;0.17;;;15.10;87.80;;;;;;5039096;28;20064;-87
2022/06/11 03:02:41;;;;;;;0.00;0.00;;;15.00;87.90;;;;;;5017739;28;20482;-87
2022/06/11 03:05:07;;;;;;;0.53;0.53;;;15.00;87.80;;;;;;5039699;28;20033;-90
2022/06/11 03:07:33;;;;;;;0.10;0.10;;;15.20;87.20;;;;;;5042665;28;20033;-90
2022/06/11 03:09:58;;;;;;;0.30;0.30;;;15.10;87.40;;;;;;5040380;28;20043;-90
2022/06/11 03:12:24;;;;;;;28.87;2.53;;;15.00;87.70;;;;;;5040959;28;20096;-89
2022/06/11 03:14:50;;;;;;;0.10;0.10;;;14.90;88.40;;;;;;5042450;28;20399;-89
2022/06/11 03:17:18;;;;;;;0.43;0.37;;;14.90;88.70;;;;;;5045018;28;20132;-90
2022/06/11 03:19:43;;;;;;;0.22;0.22;;;14.80;89.30;;;;;;5041201;28;20102;-90
2022/06/11 03:22:09;;;;;;;0.20;0.20;;;14.70;89.90;;;;;;5043773;28;20040;-91
2022/06/11 03:24:36;;;;;;;2.80;1.50;;;14.60;90.10;;;;;;5041971;28;20017;-90
2022/06/11 03:27:02;;;;;;;0.20;0.20;;;14.50;90.20;;;;;;5043918;28;20056;-90
2022/06/11 03:29:28;;;;;;;0.83;0.77;;;14.50;90.30;;;;;;5042653;28;20033;-90
2022/06/11 03:31:54;;;;;;;0.10;0.10;;;14.50;90.40;;;;;;5042443;28;20035;-92
2022/06/11 03:34:20;;;;;;;0.37;0.37;;;14.40;90.50;;;;;;5038952;28;20029;-92
2022/06/11 03:36:47;;;;;;;0.10;0.10;;;14.30;90.70;;;;;;5032402;28;20041;-90
2022/06/11 03:39:15;;;;;;;;;;;14.30;90.80;;;;;;5038081;28;20569;-91
2022/06/11 03:41:42;;;;;;;0.28;0.15;;;14.30;90.90;;;;;;5035927;28;19917;-88
2022/06/11 03:44:08;;;;;;;0.10;0.10;;;14.30;90.90;;;;;;5036136;28;20078;-88
2022/06/11 03:46:34;;;;;;;0.30;0.30;;;14.20;91.00;;;;;;5036743;28;20033;-87
2022/06/11 03:49:00;;;;;;;0.10;0.10;;;14.20;91.00;;;;;;5037015;28;20432;-88
2022/06/11 03:51:26;;;;;;;0.20;0.20;;;14.20;91.00;;;;;;5040171;28;20039;-88
2022/06/11 03:53:52;;;;;;;0.38;0.38;;;14.10;91.10;;;;;;5039661;28;20036;-89
2022/06/11 03:56:18;;;;;;;0.23;0.20;;;14.10;91.20;;;;;;5036849;28;20412;-90
2022/06/11 03:58:46;;;;;;;1.00;1.00;;;14.10;91.20;;;;;;5042859;28;20031;-89
2022/06/11 04:01:16;;;;;;;0.22;0.22;;;14.10;91.20;;;;;;5035578;28;20029;-89
2022/06/11 04:03:45;;;;;;;0.10;0.10;;;14.00;91.30;;;;;;5042402;28;20025;-88
2022/06/11 04:06:11;;;;;;;0.43;0.38;;;13.90;91.50;;;;;;5044164;28;20029;-89
2022/06/11 04:08:38;;;;;;;0.10;0.10;;;13.90;91.40;;;;;;5037729;28;20496;-87
2022/06/11 04:11:05;;;;;;;0.22;0.22;;;13.90;91.30;;;;;;5026262;28;20174;-90
2022/06/11 04:13:33;;;;;;;2.08;0.30;;;14.00;91.30;;;;;;5045805;28;20095;-90
2022/06/11 04:16:00;;;;;;;0.25;0.25;;;14.10;91.00;;;;;;5041183;28;20077;-90
2022/06/11 04:18:44;;;;;;;0.30;0.30;;;14.00;91.20;;;;;;5044576;28;20049;-89
2022/06/11 04:21:12;;;;;;;0.10;0.10;;;14.20;91.30;;;;;;5045431;28;20671;-91
2022/06/11 04:23:40;;;;;;;0.10;0.10;;;14.70;90.10;;;;;;5045423;28;20029;-92
2022/06/11 04:26:10;;;;;;;0.25;0.25;;;15.10;88.60;;;;;;5046997;28;20021;-95
2022/06/11 04:28:36;;;;;;;0.10;0.10;;;15.60;86.50;;;;;;5047610;28;20033;-94
2022/06/11 04:31:04;;;;;;;0.00;0.00;;;15.90;85.30;;;;;;5043047;28;20032;-93
2022/06/11 04:33:30;;;;;;;0.13;0.13;;;16.10;84.20;;;;;;5048889;28;20057;-92
2022/06/11 04:35:56;;;;;;;0.10;0.10;;;16.50;82.60;;;;;;5051431;28;20131;-92
2022/06/11 04:38:22;;;;;;;0.10;0.10;;;16.80;81.40;;;;;;5051644;28;20544;-91
2022/06/11 04:40:48;;;;;;;0.47;0.47;;;17.10;80.40;;;;;;5046593;28;20037;-88
2022/06/11 04:43:14;;;;;;;5.17;0.93;;;17.50;78.50;;;;;;5039047;28;20028;-91
2022/06/11 04:45:40;;;;;;;0.10;0.10;;;17.70;77.80;;;;;;5040446;28;20020;-89
2022/06/11 04:48:06;;;;;;;0.00;0.00;;;17.80;77.10;;;;;;5044370;28;20135;-88
2022/06/11 04:50:33;;;;;;;0.00;0.00;;;17.90;76.80;;;;;;5042621;28;20491;-89
2022/06/11 04:52:58;;;;;;;0.15;0.13;;;18.30;75.80;;;;;;5042726;28;20043;-89
2022/06/11 04:55:24;;;;;;;0.13;0.10;;;18.40;74.60;;;;;;5043599;28;20025;-89
2022/06/11 04:57:50;;;;;;;0.10;0.10;;;18.50;73.90;;;;;;5041369;28;20574;-89
2022/06/11 05:00:20;;;;;;;0.10;0.10;;;18.80;73.50;;;;;;5044022;28;20033;-89
2022/06/11 05:02:47;;;;;;;0.30;0.30;;;18.80;73.20;;;;;;5046436;28;20032;-92
2022/06/11 05:05:14;;;;;;;0.10;0.10;;;19.20;71.40;;;;;;5048188;28;20036;-92
2022/06/11 05:07:41;;;;;;;0.03;0.03;;;19.30;71.70;;;;;;5034958;28;20524;-92
2022/06/11 05:10:09;;;;;;;0.10;0.10;;;19.50;70.70;;;;;;5032157;28;20482;-87
2022/06/11 05:12:35;;;;;;;0.05;0.05;;;19.70;69.80;;;;;;5041735;28;20112;-87
2022/06/11 05:15:01;;;;;;;2.47;0.20;;;20.10;68.30;;;;;;5043194;28;20033;-86
2022/06/11 05:17:27;;;;;;;0.20;0.20;;;20.20;68.60;;;;;;5042068;28;20045;-85
2022/06/11 05:19:52;;;;;;;0.00;0.00;;;20.40;67.70;;;;;;5040444;28;20776;-85
2022/06/11 05:22:18;;;;;;;0.10;0.10;;;21.00;66.70;;;;;;5040567;28;20567;-86
2022/06/11 05:24:44;;;;;;;0.10;0.10;;;21.10;65.30;;;;;;5041497;28;20090;-85
2022/06/11 05:27:15;;;;;;;0.23;0.23;;;21.20;64.30;;;;;;5042698;28;20086;-88
2022/06/11 05:29:52;;;;;;;0.10;0.10;;;22.20;62.10;;;;;;5039845;28;20033;-85
2022/06/11 05:32:20;;;;;;;0.00;0.00;;;22.30;62.00;;;;;;5039848;28;20045;-83
2022/06/11 05:34:47;;;;;;;0.17;0.10;;;22.60;61.60;;;;;;5042118;28;20863;-89
2022/06/11 05:37:14;;;;;;;0.00;0.00;;;22.90;61.00;;;;;;5043447;28;20520;-88
2022/06/11 05:39:41;;;;;;;0.20;0.05;;;23.20;59.50;;;;;;5021287;28;20032;-89
2022/06/11 05:42:09;;;;;;;0.00;0.00;;;23.10;60.20;;;;;;5019929;28;20951;-87
2022/06/11 05:44:35;;;;;;;0.10;0.10;;;23.30;59.50;;;;;;5036579;28;20025;-88
2022/06/11 05:47:02;;;;;;;0.40;0.15;;;23.60;58.10;;;;;;5039894;28;20021;-88
2022/06/11 05:49:33;;;;;;;0.50;0.45;;;23.40;59.70;;;;;;5040612;28;20032;-88
2022/06/11 05:52:01;;;;;;;0.00;0.00;;;23.40;58.70;;;;;;5041572;28;20400;-88
2022/06/11 05:54:32;;;;;;;0.00;0.00;;;23.30;57.90;;;;;;5035662;28;20064;-86
2022/06/11 05:56:58;;;;;;;0.00;0.00;;;24.10;57.20;;;;;;5042813;28;20116;-85
2022/06/11 05:59:29;;;;;;;0.03;0.03;;;24.30;57.10;;;;;;5041755;28;21779;-88
2022/06/11 06:01:56;;;;;;;0.00;0.00;;;24.40;57.20;;;;;;5041650;28;20120;-87
2022/06/11 06:04:22;;;;;;;0.00;0.00;;;24.40;56.40;;;;;;5040185;28;20020;-88
2022/06/11 06:06:48;;;;;;;0.55;0.52;;;24.70;56.10;;;;;;5037871;28;20038;-89
2022/06/11 06:09:13;;;;;;;0.40;0.40;;;24.90;56.30;;;;;;5040626;28;21091;-88
2022/06/11 06:11:39;;;;;;;0.10;0.10;;;24.70;54.80;;;;;;5041810;28;20518;-87
2022/06/11 06:14:05;;;;;;;0.00;0.00;;;25.40;54.70;;;;;;5041300;28;20063;-84
2022/06/11 06:16:31;;;;;;;0.08;0.08;;;25.30;54.10;;;;;;5041014;28;20040;-87
2022/06/11 06:19:00;;;;;;;0.00;0.00;;;25.80;52.20;;;;;;5024113;28;20040;-83
2022/06/11 06:21:28;;;;;;;0.03;0.03;;;25.90;52.60;;;;;;5041704;28;20505;-87
2022/06/11 06:23:54;;;;;;;0.15;0.15;;;25.80;52.20;;;;;;5020384;28;20120;-87
2022/06/11 06:26:20;;;;;;;0.20;0.20;;;26.30;51.90;;;;;;5026181;28;20087;-89
2022/06/11 06:28:46;;;;;;;0.00;0.00;;;26.50;51.40;;;;;;5044472;28;20037;-86
2022/06/11 06:31:13;;;;;;;1.00;0.35;;;27.00;51.20;;;;;;5041085;28;20431;-87
2022/06/11 06:33:39;;;;;;;0.10;0.10;;;27.10;50.20;;;;;;5042464;28;20530;-88
2022/06/11 06:36:07;;;;;;;0.13;0.13;;;27.10;49.30;;;;;;5037542;28;20095;-88
2022/06/11 06:38:33;;;;;;;0.00;0.00;;;27.10;50.50;;;;;;5042604;28;20032;-88
2022/06/11 06:41:00;;;;;;;0.00;0.00;;;27.10;50.10;;;;;;5039700;28;20432;-87
2022/06/11 06:43:26;;;;;;;;;;;27.10;50.00;;;;;;5023525;28;20044;-89
2022/06/11 06:45:52;;;;;;;0.00;0.00;;;28.30;47.80;;;;;;5021814;28;20379;-87
2022/06/11 06:48:18;;;;;;;0.00;0.00;;;27.80;48.70;;;;;;5022893;28;20049;-88
2022/06/11 06:50:44;;;;;;;0.15;0.15;;;28.40;49.10;;;;;;5040361;28;20037;-88
2022/06/11 06:53:10;;;;;;;;;;;28.40;48.50;;;;;;5040924;28;20579;-88
2022/06/11 06:55:35;;;;;;;0.55;0.10;;;29.20;46.70;;;;;;5040652;28;19920;-88
2022/06/11 06:58:01;;;;;;;0.10;0.10;;;28.60;45.80;;;;;;5034437;28;20683;-87
2022/06/11 07:00:27;;;;;;;0.65;0.43;;;28.30;48.00;;;;;;5043823;28;20043;-84
2022/06/11 07:02:53;;;;;;;;;;;28.80;46.60;;;;;;5037778;28;20049;-90
2022/06/11 07:05:20;;;;;;;0.00;0.00;;;28.40;45.90;;;;;;5044981;28;19931;-86
2022/06/11 07:07:47;;;;;;;2.08;0.65;;;29.20;44.80;;;;;;5040336;28;20040;-86
2022/06/11 07:10:14;;;;;;;0.00;0.00;;;30.20;45.70;;;;;;5023546;28;20124;-87
2022/06/11 07:12:39;;;;;;;0.08;0.03;;;29.00;46.50;;;;;;5040896;28;20539;-87
2022/06/11 07:15:06;;;;;;;;;;;28.90;46.30;;;;;;5042401;28;20037;-85
2022/06/11 07:17:35;;;;;;;0.10;0.10;;;29.20;44.60;;;;;;5041961;28;19952;-85
2022/06/11 07:20:13;;;;;;;0.08;0.08;;;30.70;45.80;;;;;;5039455;28;20037;-85
2022/06/11 07:22:50;;;;;;;0.00;0.00;;;30.40;44.30;;;;;;5024013;28;20078;-86
2022/06/11 07:25:17;;;;;;;0.05;0.05;;;30.00;44.00;;;;;;5033880;28;20029;-82
2022/06/11 07:27:49;;;;;;;0.00;0.00;;;30.30;45.90;;;;;;5038732;28;20029;-84
2022/06/11 07:30:20;;;;;;;0.20;0.10;;;31.50;44.40;;;;;;5041213;28;20029;-85
2022/06/11 07:32:53;;;;;;;0.00;0.00;;;31.70;44.30;;;;;;5038587;28;20040;-84
2022/06/11 07:35:19;;;;;;;1.02;0.20;;;31.90;41.40;;;;;;5023547;28;20037;-84
2022/06/11 07:37:46;;;;;;;0.00;0.00;;;32.00;42.80;;;;;;5026656;28;20396;-86
2022/06/11 07:40:12;;;;;;;0.15;0.13;;;32.30;42.30;;;;;;5033626;28;20067;-86
2022/06/11 07:42:38;;;;;;;0.00;0.00;;;32.40;41.00;;;;;;5043159;28;20042;-85
2022/06/11 07:45:04;;;;;;;0.10;0.10;;;32.60;41.80;;;;;;5045811;28;20861;-86
2022/06/11 07:50:15;;;;;;;0.00;0.00;;;32.60;42.20;;;;;;5039376;28;20040;-83
2022/06/11 07:52:41;;;;;;;0.00;0.00;;;32.60;42.20;;;;;;5036699;28;20409;-85
2022/06/11 07:55:08;;;;;;;0.22;0.22;;;33.50;41.00;;;;;;5042451;28;20040;-84
2022/06/11 07:57:34;;;;;;;0.00;0.00;;;33.30;39.60;;;;;;5042512;28;20042;-84
2022/06/11 08:00:01;;;;;;;0.00;0.00;;;33.70;39.40;;;;;;5045579;28;20029;-84
2022/06/11 08:02:26;;;;;;;0.28;0.28;;;33.40;39.80;;;;;;5045619;28;20463;-84
2022/06/11 08:04:52;;;;;;;0.98;0.88;;;34.20;38.30;;;;;;5041920;28;20662;-84
2022/06/11 08:07:18;;;;;;;0.00;0.00;;;35.20;37.90;;;;;;5041209;28;20025;-85
2022/06/11 08:09:44;;;;;;;0.28;0.10;;;35.70;38.50;;;;;;5041501;28;20045;-84
2022/06/11 08:12:10;;;;;;;0.00;0.00;;;36.00;38.80;;;;;;5034473;28;20152;-85
2022/06/11 08:14:36;;;;;;;0.13;0.00;;;37.10;36.90;;;;;;5045390;28;20043;-82
2022/06/11 08:17:02;;;;;;;0.00;0.00;;;36.60;37.80;;;;;;5043803;28;20035;-84
2022/06/11 08:19:28;;;;;;;0.10;0.08;;;36.90;37.30;;;;;;5042108;28;20443;-84
2022/06/11 08:21:56;;;;;;;0.00;0.00;;;36.70;37.20;;;;;;5042022;28;20025;-84
2022/06/11 08:24:22;;;;;;;0.00;0.00;;;37.40;37.50;;;;;;5043614;28;20761;-85
2022/06/11 08:26:48;;;;;;;0.00;0.00;;;37.60;35.90;;;;;;5044068;28;20021;-82
2022/06/11 08:29:13;;;;;;;0.00;0.00;;;37.90;36.50;;;;;;5041835;28;20025;-83
2022/06/11 08:31:39;;;;;;;0.00;0.00;;;37.50;35.40;;;;;;5042684;28;20029;-84
2022/06/11 08:34:04;;;;;;;0.00;0.00;;;37.30;34.80;;;;;;5041653;28;20191;-84
2022/06/11 08:36:31;;;;;;;0.10;0.10;;;37.70;34.10;;;;;;5044083;28;20045;-85
2022/06/11 08:38:56;;;;;;;0.00;0.00;;;37.40;35.30;;;;;;5044742;28;20028;-83
2022/06/11 08:41:30;;;;;;;0.00;0.00;;;36.40;35.30;;;;;;5025966;28;20036;-85
2022/06/11 08:44:00;;;;;;;0.32;0.10;;;38.20;35.30;;;;;;5041818;28;20033;-85
2022/06/11 08:46:32;;;;;;;0.00;0.00;;;38.30;37.00;;;;;;5043724;28;20029;-84
2022/06/11 08:49:04;;;;;;;0.38;0.30;;;38.60;35.90;;;;;;5039671;28;20041;-84
2022/06/11 08:51:45;;;;;;;0.00;0.00;;;37.70;35.20;;;;;;5042115;28;20436;-85
2022/06/11 08:54:17;;;;;;;0.00;0.00;;;38.30;35.10;;;;;;5023139;28;20474;-84
2022/06/11 08:57:18;;;;;;;0.00;0.00;;;38.40;33.70;;;;;;5042919;28;20620;-84
2022/06/11 08:59:53;;;;;;;0.05;0.05;;;38.10;35.80;;;;;;5046671;28;20032;-85
2022/06/11 09:02:30;;;;;;;0.35;0.20;;;38.20;36.20;;;;;;5043958;28;20496;-84
2022/06/11 09:05:27;;;;;;;0.40;0.40;;;37.30;33.70;;;;;;5042830;28;20124;-83
2022/06/11 09:08:27;;;;;;;0.00;0.00;;;38.90;35.70;;;;;;5040773;28;20123;-84
2022/06/11 09:11:01;;;;;;;0.00;0.00;;;39.30;35.50;;;;;;5041030;28;20036;-87
2022/06/11 09:13:52;;;;;;;0.05;0.05;;;39.30;34.80;;;;;;5040981;28;20128;-85
2022/06/11 09:16:46;;;;;;;0.10;0.10;;;38.20;34.80;;;;;;5033534;28;20047;-87
2022/06/11 09:19:18;;;;;;;0.38;0.38;;;38.50;34.90;;;;;;5031744;28;20028;-85
2022/06/11 09:22:37;;;;;;;0.00;0.00;;;38.40;35.90;;;;;;5040018;28;20029;-85
2022/06/11 09:25:26;;;;;;;0.95;0.32;;;38.70;35.20;;;;;;4965509;28;20105;-86
2022/06/11 09:28:20;;;;;;;0.00;0.00;;;38.40;35.00;;;;;;4958380;28;20078;-85
2022/06/11 09:31:00;;;;;;;0.00;0.00;;;37.80;35.40;;;;;;4965587;28;20701;-87
2022/06/11 09:33:34;;;;;;;1.10;0.20;;;39.30;34.60;;;;;;4968404;28;20641;-88
2022/06/11 09:36:04;;;;;;;0.05;0.05;;;40.70;33.80;;;;;;4956116;28;20084;-88
2022/06/11 09:38:48;;;;;;;0.00;0.00;;;40.80;33.80;;;;;;4961300;28;20031;-89
2022/06/11 09:41:35;;;;;;;0.20;0.20;;;40.90;33.20;;;;;;4961892;28;20046;-86
2022/06/11 09:44:27;;;;;;;0.00;0.00;;;40.40;31.60;;;;;;4959873;28;20041;-89
2022/06/11 09:47:01;;;;;;;0.05;0.05;;;39.70;32.80;;;;;;4963216;28;20108;-89
2022/06/11 09:49:48;;;;;;;0.50;0.50;;;40.50;33.90;;;;;;4943278;28;20138;-89
2022/06/11 09:52:20;;;;;;;0.00;0.00;;;38.80;31.30;;;;;;4967488;28;20993;-88
2022/06/11 09:54:51;;;;;;;0.00;0.00;;;39.30;33.20;;;;;;4961718;28;20731;-84
2022/06/11 09:57:34;;;;;;;0.00;0.00;;;39.80;35.40;;;;;;4964351;28;20049;-85
2022/06/11 10:00:31;;;;;;;0.00;0.00;;;41.00;33.20;;;;;;5035997;28;20527;-85
2022/06/11 10:03:31;;;;;;;0.00;0.00;;;41.00;34.20;;;;;;5043663;28;20041;-82
2022/06/11 10:06:00;;;;;;;0.28;0.25;;;41.80;33.30;;;;;;5025619;28;20043;-84
2022/06/11 10:08:44;;;;;;;0.13;0.13;;;41.80;32.00;;;;;;5040133;28;20033;-85
2022/06/11 10:11:20;;;;;;;0.13;0.03;;;39.80;31.90;;;;;;5024659;28;20745;-85
2022/06/11 10:14:29;;;;;;;0.15;0.15;;;40.80;32.20;;;;;;5024435;28;20505;-85
2022/06/11 10:17:10;;;;;;;0.00;0.00;;;40.00;33.10;;;;;;5035334;28;20040;-85
2022/06/11 10:19:49;;;;;;;0.00;0.00;;;39.70;32.50;;;;;;5035471;28;20028;-85
2022/06/11 10:22:36;;;;;;;0.05;0.00;;;40.30;32.90;;;;;;5030155;28;20032;-85
2022/06/11 10:25:15;;;;;;;0.10;0.08;;;40.70;32.60;;;;;;5039280;28;20032;-84
2022/06/11 10:27:48;;;;;;;0.00;0.00;;;39.70;35.50;;;;;;5035965;28;20041;-86
2022/06/11 10:31:03;;;;;;;0.05;0.05;;;40.20;30.60;;;;;;5031894;28;20030;-85
2022/06/11 10:33:49;;;;;;;0.45;0.08;;;38.90;31.40;;;;;;4985248;28;20038;-85
2022/06/11 10:36:27;;;;;;;0.15;0.10;;;39.00;32.40;;;;;;4997017;28;20631;-85
2022/06/11 10:39:01;;;;;;;0.00;0.00;;;38.30;32.50;;;;;;4999895;28;20041;-85
2022/06/11 10:41:41;;;;;;;0.03;0.03;;;36.20;32.00;;;;;;4997139;28;20192;-85
2022/06/11 10:44:35;;;;;;;0.00;0.00;;;34.10;35.30;;;;;;4998953;28;20042;-85
2022/06/11 10:47:25;;;;;;;0.00;0.00;;;33.60;36.80;;;;;;4997414;28;20060;-80
2022/06/11 10:50:07;;;;;;;0.00;0.00;;;32.90;38.00;;;;;;4997222;28;20041;-80
2022/06/11 10:52:33;;;;;;;0.00;0.00;;;32.40;40.50;;;;;;4997084;28;20065;-80
2022/06/11 10:54:59;;;;;;;0.43;0.20;;;32.00;41.50;;;;;;4997354;28;20507;-79
2022/06/11 10:57:29;;;;;;;0.03;0.03;;;31.90;42.90;;;;;;4998895;28;20054;-79
2022/06/11 11:00:14;;;;;;;0.00;0.00;;;31.70;41.00;;;;;;5000507;28;20161;-81
2022/06/11 11:02:43;;;;;;;0.00;0.00;;;31.30;38.90;;;;;;4997134;28;20042;-79
2022/06/11 11:05:13;;;;;;;0.10;0.10;;;31.10;40.60;;;;;;4994251;28;20038;-80
2022/06/11 11:07:44;;;;;;;0.00;0.00;;;30.90;43.80;;;;;;4997352;28;20661;-80
2022/06/11 11:10:21;;;;;;;0.28;0.20;;;31.20;41.40;;;;;;5010073;28;20416;-80
2022/06/11 11:12:49;;;;;;;0.00;0.00;;;31.10;46.50;;;;;;5039053;28;20533;-80
2022/06/11 11:15:18;;;;;;;0.43;0.35;;;30.50;41.40;;;;;;5041395;28;20036;-80
2022/06/11 11:17:58;;;;;;;0.00;0.00;;;30.40;43.20;;;;;;5040174;28;20107;-80
2022/06/11 11:20:39;;;;;;;0.00;0.00;;;30.60;45.70;;;;;;5038818;28;20033;-79
2022/06/11 11:23:10;;;;;;;0.00;0.00;;;29.90;46.80;;;;;;5038727;28;20877;-79
2022/06/11 11:25:36;;;;;;;0.10;0.10;;;29.90;46.00;;;;;;5040625;28;20075;-79
2022/06/11 11:28:04;;;;;;;0.00;0.00;;;29.90;46.60;;;;;;5039244;28;20504;-79
2022/06/11 11:30:35;;;;;;;0.00;0.00;;;29.90;50.20;;;;;;5039719;28;20068;-79
2022/06/11 11:33:20;;;;;;;0.15;0.15;;;29.50;48.80;;;;;;5038423;28;20063;-79
2022/06/11 11:35:45;;;;;;;1.95;0.50;;;29.80;50.30;;;;;;5040669;28;20040;-78
2022/06/11 11:38:11;;;;;;;0.10;0.10;;;29.80;52.30;;;;;;5039351;28;20404;-79
2022/06/11 11:40:48;;;;;;;0.08;0.08;;;29.70;48.10;;;;;;5037920;28;20048;-79
2022/06/11 11:43:16;;;;;;;0.08;0.08;;;29.40;46.50;;;;;;5038956;28;20021;-80
2022/06/11 11:45:57;;;;;;;0.25;0.25;;;29.60;50.70;;;;;;5039181;28;20048;-79
2022/06/11 11:48:46;;;;;;;0.10;0.10;;;29.60;49.40;;;;;;5040497;28;20045;-79
2022/06/11 11:51:27;;;;;;;0.00;0.00;;;29.30;49.50;;;;;;5020822;28;20056;-78
2022/06/11 11:54:17;;;;;;;0.00;0.00;;;29.50;50.20;;;;;;5040385;28;20132;-78
2022/06/11 11:57:05;;;;;;;0.00;0.00;;;29.40;48.80;;;;;;5012664;28;20053;-80
2022/06/11 11:59:52;;;;;;;0.00;0.00;;;29.20;47.20;;;;;;5039311;28;20037;-81
2022/06/11 12:02:30;;;;;;;0.00;0.00;;;29.20;45.30;;;;;;5038845;28;20464;-82
2022/06/11 12:04:58;;;;;;;0.00;0.00;;;28.90;48.20;;;;;;5022294;28;20033;-80
2022/06/11 12:07:44;;;;;;;0.10;0.10;;;28.80;46.20;;;;;;5039509;28;20128;-79
2022/06/11 12:10:24;;;;;;;0.03;0.00;;;28.90;48.30;;;;;;5039882;28;20021;-80
2022/06/11 12:12:52;;;;;;;0.13;0.10;;;28.90;48.30;;;;;;5039193;28;20044;-79
2022/06/11 12:15:24;;;;;;;0.00;0.00;;;29.00;50.00;;;;;;5040056;28;20045;-79
2022/06/11 12:18:13;;;;;;;0.00;0.00;;;28.90;48.70;;;;;;5023763;28;20118;-80
2022/06/11 12:20:59;;;;;;;0.00;0.00;;;29.00;50.70;;;;;;5018510;28;20569;-79
2022/06/11 12:23:42;;;;;;;0.00;0.00;;;28.80;46.30;;;;;;5043262;28;20032;-79
2022/06/11 12:26:25;;;;;;;0.00;0.00;;;28.80;46.20;;;;;;5043479;28;20086;-79
2022/06/11 12:28:59;;;;;;;0.00;0.00;;;28.70;47.40;;;;;;5042244;28;20056;-80
2022/06/11 12:31:28;;;;;;;0.00;0.00;;;28.70;49.60;;;;;;5043711;28;20033;-80
2022/06/11 12:33:55;;;;;;;0.10;0.10;;;28.60;47.50;;;;;;5041997;28;20497;-79
2022/06/11 12:36:39;;;;;;;0.00;0.00;;;28.40;44.40;;;;;;5042990;28;20052;-79
2022/06/11 12:39:05;;;;;;;1.85;0.50;;;28.50;46.70;;;;;;5041905;28;20024;-79
2022/06/11 12:41:53;;;;;;;0.10;0.10;;;28.50;45.40;;;;;;5032324;28;20034;-79
2022/06/11 12:44:37;;;;;;;0.00;0.00;;;28.50;46.00;;;;;;5040157;28;20033;-79
2022/06/11 12:47:15;;;;;;;0.03;0.03;;;28.50;47.20;;;;;;5040846;28;20029;-84
2022/06/11 12:50:05;;;;;;;0.13;0.10;;;28.20;43.40;;;;;;5041359;28;20032;-77
2022/06/11 12:52:40;;;;;;;0.10;0.10;;;28.40;49.20;;;;;;5033446;28;20025;-80
2022/06/11 12:55:11;;;;;;;0.10;0.10;;;28.50;46.60;;;;;;5042291;28;20033;-79
2022/06/11 12:57:47;;;;;;;0.13;0.10;;;28.40;44.30;;;;;;5040599;28;20324;-79
2022/06/11 13:00:51;;;;;;;0.00;0.00;;;28.30;47.20;;;;;;5046538;28;20071;-79
2022/06/11 13:03:47;;;;;;;0.00;0.00;;;28.20;47.30;;;;;;5041281;28;20033;-80
2022/06/11 13:06:25;;;;;;;0.13;0.10;;;28.10;42.40;;;;;;5040316;28;20029;-79
2022/06/11 13:09:00;;;;;;;0.00;0.00;;;28.10;46.80;;;;;;5043474;28;20036;-80
2022/06/11 13:11:50;;;;;;;0.00;0.00;;;28.10;41.10;;;;;;5025871;28;20532;-79
2022/06/11 13:14:34;;;;;;;0.32;0.10;;;28.00;41.80;;;;;;5040689;28;20080;-79
2022/06/11 13:17:35;;;;;;;0.13;0.00;;;28.00;42.30;;;;;;5040283;28;20049;-79
2022/06/11 13:20:31;;;;;;;0.20;0.10;;;28.00;45.60;;;;;;5040483;28;20056;-79
2022/06/11 13:23:05;;;;;;;;;;;28.00;43.20;;;;;;5039608;28;20102;-79